YM Vancouver — C4ZL2 — position and weather

sailwx.info

Track history (hours):
 
Tides and Currents Weather Stations Pressure Air Temp Water Temp Dewpoint Dewpoint Depression Visibility Wind Speed Wind Dir Waves Ship Positions

YM Vancouver

Last reported at 2017-Sep-19 05:16 UTC. Time now 2017-Sep-25 11:26 UTC.
Position N 37°34' W 123°14'.

Length 260 m; draft 9.8 m.

Type: Cargo ship. MMSI: 212714000.

Date/timePositionNaut miles runAvg speedWind from/ knotsBaromVisibWave heightAir tempDewpointWater temp
2017-Sep-19 05:16N 37°34' W 123°14'311.6
2017-Sep-19 05:00N 37°34' W 123°10'510.3
2017-Sep-19 04:29N 37°35' W 123°04'510.6
2017-Sep-19 04:00N 37°37' W 122°58'510.6
2017-Sep-19 03:30N 37°40' W 122°53'510.2
2017-Sep-19 03:00N 37°43' W 122°47'5 9.8
2017-Sep-19 02:30N 37°44' W 122°41'612.4
2017-Sep-19 02:00N 37°47' W 122°34'715.0
2017-Sep-19 01:30N 37°50' W 122°26'510.1
2017-Sep-19 01:01N 37°49' W 122°20'0 0.6
2017-Sep-19 00:30N 37°49' W 122°19'0 0.0
2017-Sep-19 00:00N 37°49' W 122°19'0 0.0
2017-Sep-18 23:30N 37°49' W 122°19'0 0.0
2017-Sep-18 23:00N 37°49' W 122°19'0 0.0
2017-Sep-18 22:30N 37°49' W 122°19'0 0.0
2017-Sep-18 22:00N 37°49' W 122°19'0 0.0
2017-Sep-18 21:30N 37°49' W 122°19'0 0.0
2017-Sep-18 21:00N 37°49' W 122°19'0 0.0
2017-Sep-18 20:30N 37°49' W 122°19'0 0.0
2017-Sep-18 20:00N 37°49' W 122°19'0 0.0
2017-Sep-18 19:30N 37°49' W 122°19'0 0.0
2017-Sep-18 19:00N 37°49' W 122°19'0 0.0
2017-Sep-18 18:30N 37°49' W 122°19'0 0.0
2017-Sep-18 18:00N 37°49' W 122°19'0 0.0
2017-Sep-18 17:30N 37°49' W 122°19'0 0.0
2017-Sep-18 17:00N 37°49' W 122°19'0 0.0
2017-Sep-18 16:30N 37°49' W 122°19'0 0.0
2017-Sep-18 16:00N 37°49' W 122°19'0 0.0
2017-Sep-18 15:30N 37°49' W 122°19'0 0.0
2017-Sep-18 15:00N 37°49' W 122°19'0 0.0
2017-Sep-18 14:30N 37°49' W 122°19'0 0.0
2017-Sep-18 14:00N 37°49' W 122°19'0 0.0
2017-Sep-18 13:30N 37°49' W 122°19'0 0.8
2017-Sep-18 13:01N 37°49' W 122°20'4 8.6
2017-Sep-18 12:30N 37°49' W 122°25'713.5
2017-Sep-18 12:00N 37°47' W 122°34'612.8
2017-Sep-18 11:31N 37°45' W 122°41'4 8.4
2017-Sep-18 11:00N 37°41' W 122°40'5 9.2
2017-Sep-18 10:31N 37°36' W 122°40'5 9.3
2017-Sep-18 10:00N 37°31' W 122°40'5 9.4
2017-Sep-18 09:31N 37°27' W 122°40'5 9.4
2017-Sep-18 09:01N 37°22' W 122°40'5 9.2
2017-Sep-18 08:31N 37°17' W 122°40'5 9.2
2017-Sep-18 08:00N 37°13' W 122°40'5 9.3
2017-Sep-18 07:30N 37°08' W 122°38'5 9.1
2017-Sep-18 07:00N 37°04' W 122°36'4 7.3
2017-Sep-18 06:30N 37°01' W 122°34'5 9.2
2017-Sep-18 06:00N 36°56' W 122°32'6 9.2
2017-Sep-18 05:19N 36°50' W 122°29'5 9.6
2017-Sep-18 04:45N 36°45' W 122°26'5 9.9
2017-Sep-18 04:15N 36°41' W 122°24'210.1
2017-Sep-18 04:01N 36°39' W 122°23'21 9.7
2017-Sep-18 01:50N 36°19' W 122°13'8 9.6
2017-Sep-18 00:58N 36°12' W 122°08'4 9.5
2017-Sep-18 00:30N 36°08' W 122°05'5611.5
2017-Sep-17 19:38N 35°20' W 121°30'211.8
2017-Sep-17 19:26N 35°18' W 121°29'612.0
2017-Sep-17 18:57N 35°13' W 121°25'612.3
2017-Sep-17 18:30N 35°08' W 121°22'612.4
2017-Sep-17 18:01N 35°03' W 121°18'612.3
2017-Sep-17 17:31N 34°58' W 121°14'612.3
2017-Sep-17 17:01N 34°52' W 121°10'612.4
2017-Sep-17 16:31N 34°47' W 121°06'612.2
2017-Sep-17 16:00N 34°42' W 121°03'612.1
2017-Sep-17 15:30N 34°36' W 120°59'612.5
2017-Sep-17 15:00N 34°31' W 120°55'612.0
2017-Sep-17 14:31N 34°26' W 120°51'612.4
2017-Sep-17 14:01N 34°24' W 120°44'612.4
2017-Sep-17 13:30N 34°23' W 120°36'612.6
2017-Sep-17 13:00N 34°21' W 120°29'612.3
2017-Sep-17 12:29N 34°19' W 120°21'612.8
2017-Sep-17 12:00N 34°18' W 120°14'712.4
2017-Sep-17 11:28N 34°16' W 120°06'612.4
2017-Sep-17 11:01N 34°15' W 119°60'612.5
2017-Sep-17 10:30N 34°13' W 119°52'612.1
2017-Sep-17 10:00N 34°11' W 119°45'712.4
2017-Sep-17 09:27N 34°09' W 119°37'512.0
2017-Sep-17 09:00N 34°08' W 119°31'612.1
2017-Sep-17 08:31N 34°06' W 119°24'612.2
2017-Sep-17 08:00N 34°05' W 119°17'612.1
2017-Sep-17 07:30N 34°02' W 119°11'612.2
2017-Sep-17 07:01N 33°59' W 119°04'712.1
2017-Sep-17 06:28N 33°56' W 118°57'612.2
2017-Sep-17 05:59N 33°53' W 118°51'612.1
2017-Sep-17 05:30N 33°50' W 118°45'612.3
2017-Sep-17 05:00N 33°47' W 118°39'612.1
2017-Sep-17 04:29N 33°44' W 118°32'612.2
2017-Sep-17 04:00N 33°41' W 118°26'611.3
2017-Sep-17 03:31N 33°39' W 118°20'4 7.9
2017-Sep-17 03:00N 33°40' W 118°15'6 0.1
2017-Sep-15 08:47N 33°46' W 118°17'0 0.0
2017-Sep-15 08:29N 33°46' W 118°17'0 0.0
2017-Sep-15 07:59N 33°46' W 118°17'0 0.0
2017-Sep-15 07:29N 33°46' W 118°17'0 0.0
2017-Sep-14 04:50N 33°46' W 118°17'0 0.0
2017-Sep-14 02:14N 33°46' W 118°17'0 0.0
2017-Sep-14 00:14N 33°46' W 118°17'0 0.0
2017-Sep-13 22:20N 33°46' W 118°17'0 0.0
2017-Sep-13 21:44N 33°46' W 118°17'0 0.0
2017-Sep-13 21:19N 33°46' W 118°17'0 1.4
2017-Sep-13 21:00N 33°45' W 118°16'2 4.2
2017-Sep-13 20:28N 33°43' W 118°16'3 7.4
2017-Sep-13 20:00N 33°40' W 118°14'4 7.3
2017-Sep-13 19:30N 33°37' W 118°15'5 9.7
2017-Sep-13 19:00N 33°36' W 118°21'611.5
2017-Sep-13 18:30N 33°37' W 118°28'611.2
2017-Sep-13 18:00N 33°37' W 118°34'611.3
2017-Sep-13 17:30N 33°38' W 118°41'611.4
2017-Sep-13 17:00N 33°39' W 118°48'611.4
2017-Sep-13 16:30N 33°39' W 118°55'611.7
2017-Sep-13 16:00N 33°39' W 119°02'611.7
2017-Sep-13 15:30N 33°39' W 119°09'611.1
2017-Sep-13 15:00N 33°39' W 119°15'4 8.5
2017-Sep-13 14:30N 33°39' W 119°20'917.0
2017-Sep-13 14:00N 33°38' W 119°31'816.8
2017-Sep-13 13:30N 33°38' W 119°41'816.7
2017-Sep-13 13:00N 33°38' W 119°51'816.8
2017-Sep-13 12:30N 33°38' W 120°01'917.1
2017-Sep-13 12:00N 33°37' W 120°11'917.3
2017-Sep-13 11:30N 33°37' W 120°21'817.0
2017-Sep-13 11:00N 33°38' W 120°32'816.6
2017-Sep-13 10:30N 33°38' W 120°42'816.7
2017-Sep-13 10:00N 33°38' W 120°52'816.4
2017-Sep-13 09:30N 33°38' W 121°01'816.3
2017-Sep-13 09:00N 33°39' W 121°11'815.7
2017-Sep-13 08:30N 33°39' W 121°21'1016.1
2017-Sep-13 07:52N 33°39' W 121°33'616.0
2017-Sep-13 07:30N 33°39' W 121°40'916.2
2017-Sep-13 06:56N 33°40' W 121°51'  
Track history (hours):
 
Tides and Currents Weather Stations Pressure Air Temp Water Temp Dewpoint Dewpoint Depression Visibility Wind Speed Wind Dir Waves Ship Positions

YM Vancouver

Last reported at 2017-Sep-19 05:16 UTC. Time now 2017-Sep-25 11:26 UTC.
Position N 37°34' W 123°14'.

Length 260 m; draft 9.8 m.

Type: Cargo ship. MMSI: 212714000.

Date/timePositionNaut miles runAvg speedWind from/ knotsBaromVisibWave heightAir tempDewpointWater temp
2017-Sep-19 05:16N 37°34' W 123°14'311.6
2017-Sep-19 05:00N 37°34' W 123°10'510.3
2017-Sep-19 04:29N 37°35' W 123°04'510.6
2017-Sep-19 04:00N 37°37' W 122°58'510.6
2017-Sep-19 03:30N 37°40' W 122°53'510.2
2017-Sep-19 03:00N 37°43' W 122°47'5 9.8
2017-Sep-19 02:30N 37°44' W 122°41'612.4
2017-Sep-19 02:00N 37°47' W 122°34'715.0
2017-Sep-19 01:30N 37°50' W 122°26'510.1
2017-Sep-19 01:01N 37°49' W 122°20'0 0.6
2017-Sep-19 00:30N 37°49' W 122°19'0 0.0
2017-Sep-19 00:00N 37°49' W 122°19'0 0.0
2017-Sep-18 23:30N 37°49' W 122°19'0 0.0
2017-Sep-18 23:00N 37°49' W 122°19'0 0.0
2017-Sep-18 22:30N 37°49' W 122°19'0 0.0
2017-Sep-18 22:00N 37°49' W 122°19'0 0.0
2017-Sep-18 21:30N 37°49' W 122°19'0 0.0
2017-Sep-18 21:00N 37°49' W 122°19'0 0.0
2017-Sep-18 20:30N 37°49' W 122°19'0 0.0
2017-Sep-18 20:00N 37°49' W 122°19'0 0.0
2017-Sep-18 19:30N 37°49' W 122°19'0 0.0
2017-Sep-18 19:00N 37°49' W 122°19'0 0.0
2017-Sep-18 18:30N 37°49' W 122°19'0 0.0
2017-Sep-18 18:00N 37°49' W 122°19'0 0.0
2017-Sep-18 17:30N 37°49' W 122°19'0 0.0
2017-Sep-18 17:00N 37°49' W 122°19'0 0.0
2017-Sep-18 16:30N 37°49' W 122°19'0 0.0
2017-Sep-18 16:00N 37°49' W 122°19'0 0.0
2017-Sep-18 15:30N 37°49' W 122°19'0 0.0
2017-Sep-18 15:00N 37°49' W 122°19'0 0.0
2017-Sep-18 14:30N 37°49' W 122°19'0 0.0
2017-Sep-18 14:00N 37°49' W 122°19'0 0.0
2017-Sep-18 13:30N 37°49' W 122°19'0 0.8
2017-Sep-18 13:01N 37°49' W 122°20'4 8.6
2017-Sep-18 12:30N 37°49' W 122°25'713.5
2017-Sep-18 12:00N 37°47' W 122°34'612.8
2017-Sep-18 11:31N 37°45' W 122°41'4 8.4
2017-Sep-18 11:00N 37°41' W 122°40'5 9.2
2017-Sep-18 10:31N 37°36' W 122°40'5 9.3
2017-Sep-18 10:00N 37°31' W 122°40'5 9.4
2017-Sep-18 09:31N 37°27' W 122°40'5 9.4
2017-Sep-18 09:01N 37°22' W 122°40'5 9.2
2017-Sep-18 08:31N 37°17' W 122°40'5 9.2
2017-Sep-18 08:00N 37°13' W 122°40'5 9.3
2017-Sep-18 07:30N 37°08' W 122°38'5 9.1
2017-Sep-18 07:00N 37°04' W 122°36'4 7.3
2017-Sep-18 06:30N 37°01' W 122°34'5 9.2
2017-Sep-18 06:00N 36°56' W 122°32'6 9.2
2017-Sep-18 05:19N 36°50' W 122°29'5 9.6
2017-Sep-18 04:45N 36°45' W 122°26'5 9.9
2017-Sep-18 04:15N 36°41' W 122°24'210.1
2017-Sep-18 04:01N 36°39' W 122°23'21 9.7
2017-Sep-18 01:50N 36°19' W 122°13'8 9.6
2017-Sep-18 00:58N 36°12' W 122°08'4 9.5
2017-Sep-18 00:30N 36°08' W 122°05'5611.5
2017-Sep-17 19:38N 35°20' W 121°30'211.8
2017-Sep-17 19:26N 35°18' W 121°29'612.0
2017-Sep-17 18:57N 35°13' W 121°25'612.3
2017-Sep-17 18:30N 35°08' W 121°22'612.4
2017-Sep-17 18:01N 35°03' W 121°18'612.3
2017-Sep-17 17:31N 34°58' W 121°14'612.3
2017-Sep-17 17:01N 34°52' W 121°10'612.4
2017-Sep-17 16:31N 34°47' W 121°06'612.2
2017-Sep-17 16:00N 34°42' W 121°03'612.1
2017-Sep-17 15:30N 34°36' W 120°59'612.5
2017-Sep-17 15:00N 34°31' W 120°55'612.0
2017-Sep-17 14:31N 34°26' W 120°51'612.4
2017-Sep-17 14:01N 34°24' W 120°44'612.4
2017-Sep-17 13:30N 34°23' W 120°36'612.6
2017-Sep-17 13:00N 34°21' W 120°29'612.3
2017-Sep-17 12:29N 34°19' W 120°21'612.8
2017-Sep-17 12:00N 34°18' W 120°14'712.4
2017-Sep-17 11:28N 34°16' W 120°06'612.4
2017-Sep-17 11:01N 34°15' W 119°60'612.5
2017-Sep-17 10:30N 34°13' W 119°52'612.1
2017-Sep-17 10:00N 34°11' W 119°45'712.4
2017-Sep-17 09:27N 34°09' W 119°37'512.0
2017-Sep-17 09:00N 34°08' W 119°31'612.1
2017-Sep-17 08:31N 34°06' W 119°24'612.2
2017-Sep-17 08:00N 34°05' W 119°17'612.1
2017-Sep-17 07:30N 34°02' W 119°11'612.2
2017-Sep-17 07:01N 33°59' W 119°04'712.1
2017-Sep-17 06:28N 33°56' W 118°57'612.2
2017-Sep-17 05:59N 33°53' W 118°51'612.1
2017-Sep-17 05:30N 33°50' W 118°45'612.3
2017-Sep-17 05:00N 33°47' W 118°39'612.1
2017-Sep-17 04:29N 33°44' W 118°32'612.2
2017-Sep-17 04:00N 33°41' W 118°26'611.3
2017-Sep-17 03:31N 33°39' W 118°20'4 7.9
2017-Sep-17 03:00N 33°40' W 118°15'6 0.1
2017-Sep-15 08:47N 33°46' W 118°17'0 0.0
2017-Sep-15 08:29N 33°46' W 118°17'0 0.0
2017-Sep-15 07:59N 33°46' W 118°17'0 0.0
2017-Sep-15 07:29N 33°46' W 118°17'0 0.0
2017-Sep-14 04:50N 33°46' W 118°17'0 0.0
2017-Sep-14 02:14N 33°46' W 118°17'0 0.0
2017-Sep-14 00:14N 33°46' W 118°17'0 0.0
2017-Sep-13 22:20N 33°46' W 118°17'0 0.0
2017-Sep-13 21:44N 33°46' W 118°17'0 0.0
2017-Sep-13 21:19N 33°46' W 118°17'0 1.4
2017-Sep-13 21:00N 33°45' W 118°16'2 4.2
2017-Sep-13 20:28N 33°43' W 118°16'3 7.4
2017-Sep-13 20:00N 33°40' W 118°14'4 7.3
2017-Sep-13 19:30N 33°37' W 118°15'5 9.7
2017-Sep-13 19:00N 33°36' W 118°21'611.5
2017-Sep-13 18:30N 33°37' W 118°28'611.2
2017-Sep-13 18:00N 33°37' W 118°34'611.3
2017-Sep-13 17:30N 33°38' W 118°41'611.4
2017-Sep-13 17:00N 33°39' W 118°48'611.4
2017-Sep-13 16:30N 33°39' W 118°55'611.7
2017-Sep-13 16:00N 33°39' W 119°02'611.7
2017-Sep-13 15:30N 33°39' W 119°09'611.1
2017-Sep-13 15:00N 33°39' W 119°15'4 8.5
2017-Sep-13 14:30N 33°39' W 119°20'917.0
2017-Sep-13 14:00N 33°38' W 119°31'816.8
2017-Sep-13 13:30N 33°38' W 119°41'816.7
2017-Sep-13 13:00N 33°38' W 119°51'816.8
2017-Sep-13 12:30N 33°38' W 120°01'917.1
2017-Sep-13 12:00N 33°37' W 120°11'917.3
2017-Sep-13 11:30N 33°37' W 120°21'817.0
2017-Sep-13 11:00N 33°38' W 120°32'816.6
2017-Sep-13 10:30N 33°38' W 120°42'816.7
2017-Sep-13 10:00N 33°38' W 120°52'816.4
2017-Sep-13 09:30N 33°38' W 121°01'816.3
2017-Sep-13 09:00N 33°39' W 121°11'815.7
2017-Sep-13 08:30N 33°39' W 121°21'1016.1
2017-Sep-13 07:52N 33°39' W 121°33'616.0
2017-Sep-13 07:30N 33°39' W 121°40'916.2
2017-Sep-13 06:56N 33°40' W 121°51'  

Dump ship's entire track history